Hauptseite
METAR-TAF:

METAR-TAF

Flughäfen :

Flughafen Frankfurt-Hahn

Hahn, Deutschland

Breite: 49-57N, Länge: 007-16E, Höhe: 491 m

Beobachtung

Neuester Wetterbericht von vor 24 Minuten, um 14:20 UTC
Wind 5 kt aus unterschiedlichen Richtungen
Temperatur 17°C
Luftfeuchtigkeit 48%
Luftdruck 1025 hPa
Sichtweite 10 km oder mehr
keine Wolken unter 1500 m und keine Kumulonimbus oder Gewitterwolken

METAR: EDFH 111420Z VRB05KT CAVOK 17/06 Q1025

Zeit: 16:44 (14:44 UTC)

Prognose

Neuester Wetterbericht von vor 3 Stunden und 44 Minuten, um 11:00 UTC
Gültige Prognose vom 11 um 12 UTC bis 12 um 12 UTC
Wind 6 kt aus Nord/Nordwest
Sichtweite 10 km oder mehr
Leicht bewölkt in der Höhe von 4000 ft
Übergehend zu
vom 11 um 21 UTC bis 11 um 23 UTC
Wind 5 kt aus Nord/Nordost

TAF: EDFH 111100Z 1112/1212 33006KT 9999 FEW040 BECMG 1121/1123 03005KT

Wetterbeobachtungen und Prognosen von mehr als 4000 Flughäfen (METAR und TAF Bericht).

Die verfügbaren Stationen werden durch gelbe und rote Markierungen auf der Karte dargestellt.

Führen Sie die Maus auf sie, um den Namen der Station zu sehen.

Darauf klicken, um die Beobachtung von Wetterbeobachtungen und Prognosen zu sehen.

Um die Karte zu ändern : klicken Sie auf den grünen Tasten mit einem schwarzen Kreuz Zum Vergrößern, auf den grünen Button mit einem Gedankenstrich zu verkleinern, oder auf die grünen Pfeile für benachbarte Karten.


METAR-TAF: